Date,TemperatureHighF,TemperatureAvgF,TemperatureLowF,DewpointHighF,DewpointAvgF,DewpointLowF,HumidityHigh,HumidityAvg,HumidityLow,PressureMaxIn,PressureMinIn,WindSpeedMaxMPH,WindSpeedAvgMPH,GustSpeedMaxMPH,PrecipitationSumIn
2013-1-1,79.7,72.3,64.6,76.0,70.5,64.0,98,94,75,30.96,29.98,8,2,8,0.00
2013-1-2,83.8,71.2,61.0,80.2,68.5,60.4,98,92,61,30.88,29.82,5,0,5,0.00
2013-1-3,71.1,70.2,70.2,70.5,69.6,69.6,98,98,98,30.09,30.04,0,0,0,0.00
2013-1-4,70.2,70.2,70.2,69.6,69.6,69.6,98,98,98,30.04,30.04,0,0,0,0.00
2013-1-5,77.7,72.3,68.4,77.1,71.7,67.8,98,98,98,31.05,30.03,4,0,4,0.24
2013-1-6,71.2,68.8,67.1,70.6,68.2,66.5,98,98,98,30.98,30.21,0,0,0,0.00
2013-1-17,66.1,63.5,61.9,65.5,62.9,61.1,98,98,98,31.00,30.19,7,3,7,0.14
2013-1-18,72.9,63.9,52.3,72.1,63.3,51.8,98,98,98,31.02,29.75,8,2,8,0.00
2013-1-19,73.9,70.6,68.5,73.3,70.0,67.9,98,98,98,30.95,29.87,7,0,7,0.53
2013-1-20,81.7,72.6,66.7,80.2,72.0,66.1,98,98,98,31.00,29.92,5,0,5,0.56
2013-1-21,81.5,73.0,67.6,80.7,72.4,67.0,98,98,98,30.89,29.79,7,1,7,0.22
2013-1-22,76.8,69.2,64.9,75.7,68.6,64.3,98,98,98,31.07,29.88,6,1,6,0.00
2013-1-23,76.3,67.1,59.5,73.7,64.3,58.9,98,92,62,31.06,30.20,7,1,7,0.00
2013-1-24,77.9,65.5,58.6,67.2,59.0,48.1,98,82,46,30.96,30.02,5,0,5,0.00
2013-1-25,79.7,66.2,56.8,72.6,62.9,56.2,98,90,66,31.09,29.97,5,0,5,0.00
2013-1-26,83.3,68.0,57.9,73.9,64.0,57.3,98,89,50,31.05,30.09,7,1,7,0.00
2013-1-27,62.8,62.7,61.3,62.2,62.1,60.7,98,98,98,30.23,30.20,0,0,0,0.00
2013-1-28,62.8,62.8,62.8,62.2,62.2,62.2,98,98,98,30.22,30.22,0,0,0,0.00
2013-1-29,62.8,62.8,62.8,62.2,62.2,62.2,98,98,98,30.22,30.22,0,0,0,0.00
2013-1-30,62.8,62.8,62.8,62.2,62.2,62.2,98,98,98,30.22,30.22,0,0,0,0.00
2013-1-31,62.8,62.8,62.8,62.2,62.2,62.2,98,98,98,30.22,30.22,0,0,0,0.00
2013-2-1,62.8,62.8,62.8,62.2,62.2,62.2,98,98,98,30.22,30.22,0,0,0,0.00
2013-2-2,75.9,65.0,56.7,66.1,60.3,54.7,98,87,54,31.04,29.87,8,1,8,0.11
2013-2-3,77.4,62.9,54.0,64.3,53.9,42.3,98,77,32,31.04,30.05,6,0,6,0.00
2013-2-4,79.2,62.4,49.1,67.9,55.1,45.9,98,82,35,31.11,29.77,6,0,6,0.00
2013-2-5,81.1,67.1,53.8,75.7,64.1,53.2,98,91,60,31.01,29.83,7,1,7,0.00
2013-2-6,81.0,70.5,60.6,80.0,69.9,60.0,98,98,98,31.11,29.91,7,1,7,0.00
2013-2-7,82.8,74.1,66.9,81.8,73.5,66.3,98,98,91,31.03,29.85,8,2,8,0.00
2013-2-8,82.2,73.6,67.5,81.6,72.5,66.9,98,97,75,31.15,30.11,6,0,6,0.00
2013-2-9,82.4,72.3,65.7,81.8,71.6,65.1,98,98,82,31.24,30.26,8,2,8,0.00
2013-2-10,76.8,72.2,68.9,75.9,71.6,68.3,98,98,98,31.28,30.32,10,4,10,0.00
2013-2-11,80.6,73.8,67.6,79.8,73.2,67.0,98,98,98,31.12,30.33,7,3,7,0.00
2013-2-15,69.3,69.1,68.9,68.7,68.5,68.3,98,98,98,30.87,30.23,1,0,1,0.00
2013-2-16,72.7,66.9,54.7,72.1,64.6,53.9,98,93,61,30.70,29.79,9,2,9,0.01
2013-2-17,60.6,51.8,43.9,53.9,34.8,17.6,98,59,22,31.02,30.12,8,2,8,0.00
2013-2-18,70.9,59.4,46.0,66.3,53.7,37.7,98,83,57,31.21,30.11,10,3,10,0.00
2013-2-19,79.5,71.3,59.2,78.6,70.7,58.6,98,98,92,31.20,29.83,7,2,7,0.00
2013-2-20,81.0,72.0,65.1,79.1,71.0,64.5,98,97,70,31.21,30.07,6,1,6,0.00
2013-2-21,83.7,73.7,65.1,83.1,73.1,64.5,98,98,98,31.11,29.97,8,2,8,0.00
2013-2-22,84.2,77.3,72.0,83.6,76.7,71.4,98,98,98,31.13,30.15,10,3,10,0.00
2013-2-23,85.5,77.8,72.9,84.7,77.2,72.3,98,98,98,31.11,30.21,9,3,9,0.81
2013-2-24,86.9,78.7,72.9,86.3,78.1,72.3,98,98,98,31.02,30.03,6,1,6,0.00
2013-2-25,86.0,77.3,70.5,84.9,76.7,69.9,98,98,98,30.84,29.81,8,2,8,0.00
2013-2-26,87.3,80.3,76.3,86.1,79.6,75.7,98,98,94,30.87,29.95,7,1,7,0.00
2013-2-27,78.3,77.9,77.9,77.7,77.3,77.3,98,98,98,30.89,30.20,4,1,4,0.00
2013-2-28,77.9,77.9,77.9,77.3,77.3,77.3,98,98,98,30.84,30.84,1,1,1,0.00
2013-3-1,77.9,77.9,77.9,77.3,77.3,77.3,98,98,98,30.84,30.84,1,1,1,0.00
2013-3-2,77.9,76.9,55.0,77.3,75.9,43.0,98,97,61,30.84,30.27,3,1,3,0.00
2013-3-16,62.8,62.8,62.8,62.2,62.2,62.2,98,98,98,30.22,30.22,0,0,0,0.00
2013-3-31,79.3,72.5,62.8,78.7,71.9,62.2,98,98,98,30.89,30.22,5,1,5,0.00
2013-4-4,74.3,72.8,71.2,73.7,72.2,70.6,98,98,98,30.88,30.41,2,0,2,0.00
2013-4-5,76.3,72.4,69.4,75.7,71.8,68.7,98,98,98,30.85,29.77,6,0,6,0.50
2013-4-6,80.1,71.3,62.6,79.1,70.7,62.0,98,98,98,30.92,29.84,7,1,7,0.00
2013-4-7,81.5,74.4,70.2,80.5,73.8,69.6,98,98,98,30.98,29.94,7,1,7,0.00
2013-4-8,85.5,74.2,62.4,84.0,69.3,61.8,98,86,51,30.94,29.89,6,0,6,0.00
2013-4-9,84.0,76.5,72.5,83.4,75.9,71.9,98,98,98,30.92,29.97,8,1,8,0.01
2013-4-10,85.8,78.5,73.4,84.9,77.9,72.8,98,98,98,30.98,29.76,7,2,7,0.00
2013-4-11,84.9,79.7,77.0,84.0,79.1,76.4,98,98,98,30.89,29.74,9,2,9,0.00
2013-4-12,89.1,82.5,79.2,88.5,81.9,78.6,98,98,98,30.59,29.60,9,2,9,0.05
2013-4-13,75.0,74.0,70.7,74.4,73.4,69.9,98,98,98,30.72,30.15,5,0,5,1.35
2013-4-14,79.7,76.9,73.8,78.7,76.3,73.2,98,98,98,30.90,30.03,2,0,2,0.00
2013-4-20,87.3,77.5,76.1,86.7,76.9,75.5,98,98,98,30.68,30.10,4,0,4,0.01
2013-4-21,87.6,79.6,74.8,86.3,79.0,74.2,98,98,98,30.76,29.95,10,1,10,0.01
2013-4-22,86.2,76.9,72.3,85.0,76.3,71.7,98,98,98,30.72,29.84,6,0,6,0.21
2013-4-23,84.7,76.6,70.3,83.6,75.9,69.7,98,98,81,30.68,29.86,8,1,8,0.00
2013-4-24,85.6,77.4,70.2,80.5,73.5,67.5,98,89,60,30.78,29.89,7,0,7,0.00
2013-4-25,86.2,77.2,70.9,79.6,71.1,64.5,98,84,50,30.83,29.94,6,0,6,0.00
2013-4-26,86.2,76.5,67.1,82.1,74.4,66.5,98,94,65,31.00,30.01,7,1,7,0.00
2013-4-27,74.7,73.2,71.6,73.9,72.6,70.8,98,98,98,31.17,30.23,5,0,5,0.00
2013-5-2,77.5,76.6,75.2,76.9,76.0,74.6,98,98,98,30.62,29.95,11,3,11,0.05
2013-5-3,87.8,77.8,72.1,86.3,77.2,71.5,98,98,98,30.68,29.64,6,0,6,2.59
2013-5-4,89.1,78.3,72.0,88.1,77.7,71.4,98,98,98,30.74,29.79,6,0,6,0.01
2013-5-5,80.2,75.4,70.2,79.6,74.8,69.6,98,98,98,30.75,30.00,5,0,5,0.00
2013-5-6,77.7,77.7,77.7,77.1,77.1,77.1,98,98,98,30.49,30.49,0,0,0,0.00
2013-5-7,77.7,77.7,77.7,77.1,77.1,77.1,98,98,98,30.49,30.49,0,0,0,0.00
2013-5-8,77.7,77.7,77.7,77.1,77.1,77.1,98,98,98,30.49,30.49,0,0,0,0.00
2013-5-9,77.7,77.7,77.7,77.1,77.1,77.1,98,98,98,30.49,30.49,0,0,0,0.00
2013-5-10,77.7,77.7,77.7,77.1,77.1,77.1,98,98,98,30.49,30.49,0,0,0,0.00
2013-5-11,77.7,77.7,77.7,77.1,77.1,77.1,98,98,98,30.49,30.49,0,0,0,0.00
2013-5-23,95.9,85.4,77.7,90.6,83.0,65.6,98,94,39,30.49,29.70,6,1,6,0.00
2013-5-24,93.7,84.7,79.2,92.9,83.2,73.0,98,96,61,30.56,29.75,5,0,5,0.00
2013-5-25,88.0,81.1,75.7,86.3,78.9,69.6,98,94,55,30.73,29.94,7,1,7,0.17
2013-5-26,87.8,79.1,70.0,85.8,77.5,69.4,98,95,68,30.98,30.10,7,1,7,0.00
2013-5-27,87.1,79.8,74.5,86.1,79.2,73.9,98,98,98,30.71,29.90,10,2,10,0.01
2013-5-28,84.0,80.3,75.9,83.4,79.7,75.3,98,98,98,30.83,29.77,10,3,10,0.82
2013-5-29,84.4,79.6,74.7,83.8,79.0,74.1,98,98,98,30.84,29.80,11,2,11,5.85
2013-5-30,85.1,80.4,75.4,84.5,79.8,74.8,98,98,98,30.69,29.86,14,4,14,0.44
2013-5-31,87.6,81.6,77.7,86.5,81.0,77.1,98,98,98,30.86,29.84,10,3,10,0.27
2013-6-1,86.9,82.1,79.5,86.1,81.5,78.9,98,98,98,30.85,30.05,7,0,7,0.66
2013-6-2,92.1,83.8,78.6,91.3,83.2,78.0,98,98,98,30.79,29.89,4,0,4,0.00
2013-6-3,89.1,81.6,77.4,87.9,81.0,76.8,98,98,98,30.72,29.76,5,0,5,1.02
2013-6-4,88.5,83.0,80.1,87.6,82.4,79.5,98,98,98,30.75,29.84,4,0,4,0.02
2013-6-5,87.6,84.4,82.0,87.0,83.8,81.4,98,98,98,30.63,29.77,6,0,6,0.04
2013-6-6,84.4,81.9,80.2,83.8,81.3,79.6,98,98,98,30.46,30.11,6,0,6,1.45
2013-6-7,91.4,81.9,79.0,90.4,81.3,78.4,98,98,98,30.67,29.71,6,0,6,0.64
2013-6-8,89.1,84.1,80.6,88.1,83.5,80.0,98,98,98,30.81,29.92,6,0,6,1.07
2013-6-16,95.2,87.4,82.8,93.8,86.8,82.2,98,98,91,30.48,29.16,6,0,6,1.07
2013-6-17,94.1,85.9,79.3,92.9,85.3,78.7,98,98,98,30.12,29.42,6,0,6,0.00
2013-6-18,94.1,85.7,79.3,92.8,85.1,78.7,98,98,98,30.31,29.39,5,0,5,0.00
2013-6-19,93.0,85.5,80.1,92.2,84.9,79.5,98,98,95,30.24,29.47,6,0,6,0.00
2013-6-20,94.1,83.4,74.7,92.9,82.6,74.1,98,98,78,30.48,29.58,6,0,6,0.54
2013-6-21,92.7,85.0,78.4,91.7,84.3,77.8,98,98,89,30.43,29.48,7,0,7,0.00
2013-6-22,93.6,85.3,78.6,92.1,84.1,78.0,98,96,74,30.62,29.42,6,1,6,0.00
2013-6-23,91.2,84.0,77.5,90.6,83.4,76.4,98,98,98,30.68,29.88,10,1,10,0.33
2013-6-24,82.2,81.4,81.0,81.6,80.8,80.4,98,98,98,30.61,29.75,6,0,6,0.00
2013-6-25,81.3,81.3,81.3,80.7,80.7,80.7,98,98,98,30.56,30.56,0,0,0,0.00
2013-6-26,92.8,85.0,81.3,91.9,84.4,80.7,98,98,93,30.56,29.58,6,0,6,0.03
2013-6-27,91.8,83.2,79.0,91.2,82.6,78.4,98,98,98,30.53,29.53,6,0,6,0.01
2013-6-28,95.4,83.7,75.4,93.4,83.0,74.8,98,98,84,30.58,29.39,6,0,6,0.97
2013-6-29,81.7,79.2,77.0,81.1,78.6,76.4,98,98,98,30.58,29.43,5,0,5,0.01
2013-6-30,92.5,81.9,77.0,91.9,81.3,76.4,98,98,98,30.34,29.49,6,0,6,2.22
2013-7-1,90.1,83.9,77.0,89.0,83.3,76.4,98,98,98,30.44,29.42,7,1,7,0.19
2013-7-2,90.7,84.7,78.1,89.4,84.1,77.5,98,98,98,30.62,29.59,6,0,6,0.01
2013-7-3,90.1,83.6,79.9,89.5,83.0,79.3,98,98,98,30.62,29.61,10,1,10,0.29
2013-7-4,90.7,84.8,81.0,90.1,84.2,80.4,98,98,98,30.50,29.44,8,1,8,0.01
2013-7-5,87.4,82.9,78.4,86.8,82.3,77.8,98,98,98,30.67,29.62,9,1,9,0.53
2013-7-6,90.9,84.3,81.3,90.3,83.7,80.7,98,98,98,30.55,29.68,8,2,8,0.06
2013-7-7,90.3,83.7,80.8,89.5,83.1,80.2,98,98,98,32.24,29.42,6,1,6,0.00
2013-7-8,92.3,84.5,79.5,90.4,83.6,78.9,98,97,80,32.48,26.99,6,1,6,0.00
2013-7-9,88.7,81.8,77.0,87.9,81.2,76.4,98,98,98,32.43,26.93,8,0,8,0.30
2013-7-10,88.2,80.9,74.5,87.4,80.3,73.9,98,98,98,32.46,26.55,5,0,5,0.97
2013-7-11,92.3,84.0,78.8,91.3,83.4,78.2,98,98,98,32.35,26.12,6,0,6,0.00
2013-7-12,93.7,81.4,74.1,93.0,80.8,73.5,98,98,98,32.39,26.84,4,0,4,6.23
2013-7-13,89.4,79.3,76.6,88.1,78.7,76.0,98,98,98,32.36,27.67,6,0,6,3.44
2013-7-14,90.7,82.0,76.8,90.1,81.4,76.2,98,98,98,32.34,26.21,7,0,7,0.29
2013-7-15,90.9,82.6,77.5,89.9,82.0,76.9,98,98,98,32.45,26.47,6,0,6,2.19
2013-7-16,84.4,79.7,76.1,83.8,79.1,74.6,98,98,98,32.30,27.13,9,1,9,0.77
2013-7-17,83.8,80.8,78.1,83.2,80.2,77.5,98,98,98,32.40,27.45,6,0,6,0.17
2013-7-18,88.3,80.8,75.6,87.6,80.2,75.0,98,98,98,32.45,26.60,6,0,6,1.73
2013-7-19,89.4,83.7,78.6,88.5,83.1,78.0,98,98,98,32.47,26.79,7,0,7,0.01
2013-7-20,89.4,84.6,80.1,88.8,84.0,79.5,98,98,98,32.44,28.64,12,1,12,0.30
2013-7-21,91.6,85.2,80.6,91.0,84.6,80.0,98,98,98,32.46,28.74,7,0,7,0.06
2013-7-22,97.7,87.1,80.6,94.8,85.6,80.0,98,95,72,32.38,26.49,9,1,9,0.08
2013-7-23,102.0,86.8,79.7,95.7,84.6,79.1,98,94,52,32.47,26.51,8,1,8,0.00
2013-7-24,104.0,88.6,79.9,94.8,81.7,71.1,98,84,45,32.30,26.27,5,0,5,0.00
2013-7-25,99.9,86.8,77.4,95.4,84.8,76.8,98,94,68,32.31,26.44,3,0,3,0.08
2013-7-26,103.5,87.0,79.5,95.2,84.7,78.9,98,94,55,32.38,26.70,6,0,6,0.00
2013-7-27,96.1,83.0,79.2,94.7,82.3,78.6,98,98,83,32.47,27.14,10,0,10,1.52
2013-7-28,91.0,83.8,82.6,90.4,83.2,82.0,98,98,98,32.44,27.12,5,0,5,0.00
2013-7-29,98.6,87.5,83.1,97.0,86.7,82.5,98,97,82,32.40,27.04,8,1,8,0.00
2013-7-30,99.7,88.2,79.3,97.7,86.9,78.7,98,96,79,32.44,26.91,7,1,7,0.00
2013-7-31,97.7,87.3,80.6,95.9,85.5,80.0,98,95,75,32.41,27.02,10,2,10,0.00
2013-8-1,99.3,87.5,79.9,92.3,84.4,79.3,98,92,62,32.43,26.98,9,2,9,0.00
2013-8-2,96.3,83.4,78.1,93.9,82.2,77.5,98,96,72,32.47,26.63,5,0,5,0.13
2013-8-3,88.9,81.8,77.9,88.1,81.2,77.3,98,98,98,32.48,26.45,7,0,7,3.02
2013-8-4,94.1,85.9,82.9,93.0,85.3,49.3,98,98,98,32.46,27.08,2,0,2,0.01
2013-8-11,93.0,87.8,82.2,92.4,87.2,81.6,98,98,98,31.79,27.47,0,0,0,0.01
2013-8-12,93.7,84.9,78.8,92.4,84.3,78.2,98,98,98,32.42,27.23,4,0,4,0.00
2013-8-13,93.6,85.8,80.6,92.8,84.8,80.0,98,97,76,32.47,27.61,1,0,1,0.00
2013-8-14,84.2,80.7,79.2,83.6,80.1,78.6,98,98,98,32.48,29.31,0,0,0,0.00
2013-8-15,85.8,83.3,77.9,85.2,82.7,77.3,98,98,98,32.36,27.60,0,0,0,0.93
2013-8-16,85.1,85.1,85.1,84.5,84.5,84.5,98,98,98,31.56,31.56,0,0,0,0.00
2013-8-17,85.8,85.5,85.1,85.2,84.9,84.5,98,98,98,31.56,31.56,0,0,0,0.00
2013-8-18,90.5,88.1,85.8,89.9,87.5,85.2,98,98,98,31.56,28.95,0,0,0,0.00
2013-8-19,90.5,90.5,90.5,89.9,89.9,89.9,98,98,98,28.95,28.95,0,0,0,0.00
2013-8-20,90.5,90.5,90.5,89.9,89.9,89.9,98,98,98,28.95,28.95,0,0,0,0.00
2013-8-21,90.5,90.5,90.5,89.9,89.9,89.9,98,98,98,28.95,28.95,0,0,0,0.00